St-Mathieu-De-Beloeil Airport

CSB3 · Quebec, 加拿大

METAR的历史 CSB3 · St-Mathieu-De-Beloeil Airport

下面你可以看到过去几天的METARs。 选择年份以浏览从2007年开始的旧METAR。

2022年12月1日

时间 代码 天气 温度 能见度 天花板 METAR/SPECI
20:00
V
-1 °C 9 mi 5.000 ft 300° 300° 8 kt METAR CYHU 020100Z AUTO 30008KT 9SM BKN050 M01/M08 A3030 RMK SLP264
19:00
V
0 °C 9 mi 5.000 ft 300° 300° 11 - 19 kt METAR CYHU 020000Z AUTO 30011G19KT 9SM BKN050 M00/M08 A3027 RMK SLP253
18:00
V
1 °C 9 mi 5.000 ft 270° 270° 24 - 34 kt METAR CYHU 012300Z AUTO 27024G34KT 9SM OVC050 01/M09 A3022 RMK SLP238
17:55
V
1 °C 9 mi 5.500 ft 280° 280° 23 - 33 kt METAR CYHU 012255Z AUTO 28023G33KT 9SM OVC055 01/M09 A3022 RMK SLP237
17:00
V
1 °C 9 mi 5.500 ft 280° 280° 13 - 21 kt METAR CYHU 012200Z AUTO 28013G21KT 9SM FEW048 OVC055 01/M08 A3018 RMK PRESRR SLP224
16:05
V
1 °C 9 mi 6.000 ft 280° 280° 13 - 24 kt METAR CYHU 012105Z AUTO 28013G24KT 9SM OVC060 01/M08 A3014 RMK SLP209
16:00
V
1 °C 9 mi 6.000 ft 270° 270° 18 - 27 kt METAR CYHU 012100Z AUTO 27018G27KT 9SM -RA OVC060 01/M07 A3014 RMK SLP209
15:54
V
1 °C 9 mi 6.000 ft 280° 280° 17 - 27 kt METAR CYHU 012054Z AUTO 28017G27KT 9SM -RA FEW046 OVC060 01/M08 A3013 RMK SLP207
15:00
V
1 °C 9 mi 6.000 ft 270° 270° 19 - 34 kt METAR CYHU 012000Z AUTO 27019G34KT 9SM FEW048 OVC060 01/M08 A3008 RMK SLP190
14:13
V
1 °C 9 mi 5.500 ft 280° 280° 16 - 26 kt METAR CYHU 011913Z AUTO 28016G26KT 9SM SCT045 OVC055 01/M07 A3004 RMK SLP175
14:02
V
1 °C 9 mi 4.300 ft 290° 290° 21 - 30 kt METAR CYHU 011902Z AUTO 29021G30KT 9SM -RA BKN043 BKN055 BKN074 01/M07 A3003 RMK SLP173
13:28
V
1 °C 9 mi - 280° 280° 18 - 35 kt METAR CYHU 011828Z AUTO 28018G35KT 9SM FEW026 SCT069 SCT088 01/M06 A3001 RMK SLP166
13:13
V
0 °C 7 mi 5.500 ft 290° 290° 20 - 35 kt METAR CYHU 011813Z AUTO 29020G35KT 7SM -SN FEW026 SCT040 BKN055 OVC085 00/M06 A3001 RMK PRESRR SLP165
13:00
V
1 °C 9 mi 5.500 ft 270° 270° 19 - 28 kt METAR CYHU 011800Z AUTO 27019G28KT 9SM FEW035 SCT042 BKN055 BKN067 01/M06 A2999 RMK SLP160
12:39
V
1 °C 9 mi 3.500 ft 280° 280° 18 - 28 kt METAR CYHU 011739Z AUTO 28018G28KT 9SM BKN035 BKN047 BKN066 OVC083 01/M05 A2998 RMK PRESRR SLP156
12:23
V
1 °C 9 mi 4.500 ft 280° 280° 20 - 34 kt METAR CYHU 011723Z AUTO 28020G34KT 9SM -SN FEW033 BKN045 BKN066 OVC079 01/M06 A2996 RMK PRESRR SLP150
12:17
V
1 °C 9 mi 4.900 ft 280° 280° 23 - 34 kt METAR CYHU 011717Z AUTO 28023G34KT 9SM SCT044 BKN049 BKN066 OVC080 01/M07 A2995 RMK SLP146
12:06
V
1 °C 9 mi 6.000 ft 270° 270° 20 - 29 kt METAR CYHU 011706Z AUTO 27020G29KT 9SM -RA SCT044 BKN060 BKN080 01/M07 A2995 RMK SLP144
12:00
V
1 °C 9 mi 8.100 ft 260° 260° 18 - 28 kt METAR CYHU 011700Z AUTO 26018G28KT 9SM FEW042 BKN081 01/M06 A2994 RMK SLP143
11:14
V
1 °C 9 mi 3.800 ft 270° 270° 18 - 26 kt METAR CYHU 011614Z AUTO 27018G26KT 9SM FEW025 BKN038 BKN050 01/M05 A2992 RMK SLP135
11:03
V
0 °C 6 mi 3.500 ft 270° 270° 13 - 21 kt METAR CYHU 011603Z AUTO 27013G21KT 6SM -SN SCT023 BKN035 BKN048 00/M04 A2992 RMK SLP135
11:00
I
0 °C 3 mi 3.500 ft 270° 270° 14 - 22 kt METAR CYHU 011600Z AUTO 27014G22KT 3SM -SN SCT023 BKN035 BKN048 M00/M04 A2992 RMK SLP136
10:52
V
0 °C 5 mi 3.500 ft 270° 270° 15 - 33 kt SPECI CYHU 011552Z AUTO 27015G33KT 5SM -SN FEW006 SCT020 BKN035 OVC050 M00/M04 A2992 RMK PRESRR SLP135
10:38
V
1 °C 9 mi 4.000 ft 270° 270° 14 - 25 kt METAR CYHU 011538Z AUTO 27014G25KT 9SM -RA FEW017 SCT031 BKN040 OVC066 01/M05 A2991 RMK SLP131
10:31
V
0 °C 7 mi 3.800 ft 270° 270° 19 - 25 kt METAR CYHU 011531Z AUTO 27019G25KT 7SM -SN FEW026 SCT031 BKN038 OVC060 00/M04 A2990 RMK SLP128
10:26
I
0 °C 3 mi 3.100 ft 300° 300° 15 - 31 kt METAR CYHU 011526Z AUTO 30015G31KT 3SM -SN FEW024 BKN031 BKN038 OVC055 M00/M03 A2991 RMK PRESRR SLP130
10:20
M
0 °C 4 mi 4.200 ft 280° 280° 16 - 36 kt METAR CYHU 011520Z AUTO 28016G36KT 4SM -SNRA FEW024 SCT032 BKN042 BKN055 M00/M04 A2990 RMK PRESRR SLP128
10:18
V
0 °C 5 mi 4.200 ft 280° 280° 23 - 36 kt METAR CYHU 011518Z AUTO 28023G36KT 5SM -RA FEW024 SCT032 BKN042 BKN055 00/M05 A2990 RMK SLP127
10:00
V
1 °C 9 mi - 270° 270° 18 - 25 kt METAR CYHU 011500Z AUTO 27018G25KT 9SM FEW027 SCT055 SCT100 01/M05 A2989 RMK SLP123
09:14
V
0 °C 9 mi 10.000 ft 260° 260° 17 - 28 kt METAR CYHU 011414Z AUTO 26017G28KT 9SM FEW020 SCT027 BKN100 OVC130 M00/M03 A2986 RMK SLP115
09:00
M
0 °C 9 mi 2.300 ft 250° 250° 16 - 32 kt METAR CYHU 011400Z AUTO 25016G32KT 9SM -SN BKN023 BKN055 BKN100 OVC120 M00/M04 A2985 RMK SLP111
08:46
M
0 °C 7 mi 2.100 ft 270° 270° 15 - 27 kt METAR CYHU 011346Z AUTO 27015G27KT 7SM -SN BKN021 OVC025 M00/M03 A2984 RMK PRESRR SLP109
08:27
M
0 °C 4 mi 2.300 ft 260° 260° 21 - 31 kt METAR CYHU 011327Z AUTO 26021G31KT 4SM -SN BKN023 00/M05 A2982 RMK SLP100
08:20
M
0 °C 5 mi 2.500 ft 250° 250° 21 - 36 kt METAR CYHU 011320Z AUTO 25021G36KT 5SM -SN BKN025 OVC049 00/M05 A2981 RMK SLP099
08:18
M
0 °C 6 mi 2.500 ft 260° 260° 26 - 36 kt METAR CYHU 011318Z AUTO 26026G36KT 6SM -SN BKN025 BKN040 OVC049 00/M05 A2981 RMK SLP097
08:12
M
0 °C 9 mi 2.800 ft 250° 250° 21 - 35 kt METAR CYHU 011312Z AUTO 25021G35KT 9SM -SNRA BKN028 BKN038 BKN047 OVC055 00/M05 A2981 RMK SLP097
08:00
V
1 °C 9 mi 5.000 ft 250° 250° 21 - 33 kt METAR CYHU 011300Z AUTO 25021G33KT 9SM -RA FEW040 BKN050 OVC110 01/M05 A2980 RMK SLP095
07:23
V
0 °C 9 mi 3.900 ft 250° 250° 26 - 41 kt METAR CYHU 011223Z AUTO 25026G41KT 9SM -RA BKN039 00/M06 A2977 RMK SLP085
07:00
V
0 °C 9 mi 4.100 ft 260° 260° 23 - 37 kt METAR CYHU 011200Z AUTO 26023G37KT 9SM BKN041 OVC050 00/M06 A2976 RMK SLP082
06:58
V
0 °C 9 mi 4.100 ft 250° 250° 25 - 37 kt METAR CYHU 011158Z AUTO 25025G37KT 9SM BKN041 OVC050 00/M06 A2976 RMK SLP081
06:46
V
0 °C 9 mi 4.400 ft 240° 240° 23 - 34 kt SPECI CYHU 011146Z AUTO 24023G34KT 9SM -RA SCT036 OVC044 00/M05 A2976 RMK SLP081
06:35
V
0 °C 9 mi 4.400 ft 250° 250° 29 - 41 kt METAR CYHU 011135Z AUTO 25029G41KT 9SM SCT036 OVC044 00/M06 A2975 RMK SLP077
06:27
V
0 °C 9 mi 4.400 ft 240° 240° 27 - 41 kt METAR CYHU 011127Z AUTO 24027G41KT 9SM -UP FEW034 BKN044 BKN055 OVC072 00/M05 A2975 RMK SLP078
06:23
V
0 °C 9 mi 4.200 ft 250° 250° 28 - 39 kt METAR CYHU 011123Z AUTO 25028G39KT 9SM -SN -UP FEW034 BKN042 BKN055 OVC072 00/M05 A2975 RMK SLP077
06:17
V
1 °C 9 mi 4.200 ft 250° 250° 25 - 35 kt SPECI CYHU 011117Z AUTO 25025G35KT 9SM -SNRA FEW034 BKN042 BKN050 OVC071 01/M05 A2975 RMK SLP076
06:12
V
1 °C 9 mi 4.700 ft 250° 250° 23 - 35 kt METAR CYHU 011112Z AUTO 25023G35KT 9SM -RA FEW040 BKN047 OVC071 01/M05 A2975 RMK SLP076
06:00
V
1 °C 9 mi 4.700 ft 250° 250° 22 - 34 kt METAR CYHU 011100Z AUTO 25022G34KT 9SM BKN047 OVC071 01/M06 A2975 RMK SLP076
05:54
V
1 °C 9 mi 4.600 ft 250° 250° 23 - 34 kt METAR CYHU 011054Z AUTO 25023G34KT 9SM BKN046 OVC071 01/M06 A2975 RMK SLP076
05:44
V
1 °C 9 mi 4.600 ft 240° 240° 22 - 31 kt METAR CYHU 011044Z AUTO 24022G31KT 9SM -RA OVC046 01/M06 A2975 RMK SLP076
05:00
V
0 °C 9 mi 4.300 ft 250° 250° 19 - 29 kt METAR CYHU 011000Z AUTO 25019G29KT 9SM FEW035 BKN043 00/M06 A2975 RMK SLP076
04:00
V
0 °C 9 mi 4.400 ft 240° 240° 19 - 32 kt METAR CYHU 010900Z AUTO 24019G32KT 9SM FEW035 BKN044 BKN050 BKN120 00/M06 A2973 RMK SLP070
03:00
V
1 °C 9 mi 5.000 ft 250° 250° 23 - 36 kt METAR CYHU 010800Z AUTO 25023G36KT 9SM BKN050 01/M06 A2971 RMK SLP064
02:00
V
1 °C 9 mi - 250° 250° 28 - 39 kt METAR CYHU 010700Z AUTO 25028G39KT 9SM CLR 01/M05 A2969 RMK SLP056
01:00
V
1 °C 9 mi 7.600 ft 250° 250° 24 - 34 kt METAR CYHU 010600Z AUTO 25024G34KT 9SM FEW036 BKN076 01/M05 A2966 RMK SLP047
00:10
V
2 °C 9 mi 3.900 ft 240° 240° 19 - 31 kt METAR CYHU 010510Z AUTO 24019G31KT 9SM BKN039 OVC071 02/M04 A2966 RMK SLP047
00:00
V
2 °C 9 mi 3.900 ft 250° 250° 23 - 31 kt METAR CYHU 010500Z AUTO 25023G31KT 9SM -UP BKN039 OVC071 02/M04 A2965 RMK SLP045

2022年11月30日

时间 代码 天气 温度 能见度 天花板 METAR/SPECI
23:53
V
2 °C 9 mi 3.900 ft 240° 240° 17 - 29 kt SPECI CYHU 010453Z AUTO 24017G29KT 9SM -UP FEW033 BKN039 OVC066 02/M03 A2965 RMK SLP045
23:28
V
2 °C 9 mi 4.600 ft 250° 250° 19 - 33 kt METAR CYHU 010428Z AUTO 25019G33KT 9SM -RA SCT030 BKN046 BKN066 OVC076 02/M03 A2965 RMK SLP043
23:15
V
2 °C 9 mi 5.000 ft 250° 250° 23 - 32 kt METAR CYHU 010415Z AUTO 25023G32KT 9SM FEW026 SCT034 BKN050 OVC076 02/M02 A2964 RMK SLP041
23:00
V
2 °C 9 mi 4.700 ft 240° 240° 20 - 34 kt METAR CYHU 010400Z AUTO 24020G34KT 9SM -RA SCT026 SCT032 BKN047 OVC071 02/M02 A2964 RMK SLP041
22:05
V
3 °C 9 mi 6.000 ft 250° 250° 22 - 29 kt METAR CYHU 010305Z AUTO 25022G29KT 9SM -RA FEW024 SCT036 BKN060 OVC075 03/M01 A2962 RMK SLP035
22:00
V
3 °C 9 mi 5.500 ft 240° 240° 18 - 27 kt METAR CYHU 010300Z AUTO 24018G27KT 9SM FEW026 SCT036 BKN055 OVC074 03/M00 A2962 RMK SLP034
21:08
V
4 °C 9 mi 3.200 ft 240° 240° 20 - 26 kt METAR CYHU 010208Z AUTO 24020G26KT 9SM FEW021 SCT027 BKN032 OVC055 04/01 A2961 RMK SLP029
20:51
M
3 °C 9 mi 2.400 ft 240° 240° 17 - 28 kt METAR CYHU 010151Z AUTO 24017G28KT 9SM -RA SCT019 BKN024 BKN033 OVC055 03/01 A2960 RMK SLP027
20:19
V
5 °C 9 mi 5.500 ft 240° 240° 18 - 28 kt METAR CYHU 010119Z AUTO 24018G28KT 9SM -RA FEW028 SCT041 BKN055 OVC070 05/01 A2958 RMK SLP020
20:00
V
5 °C 9 mi 7.100 ft 240° 240° 17 - 31 kt METAR CYHU 010100Z AUTO 24017G31KT 9SM FEW028 SCT034 BKN071 OVC140 05/01 A2957 RMK SLP015
19:00
V
6 °C 9 mi 11.000 ft 250° 250° 25 - 38 kt METAR CYHU 010000Z AUTO 25025G38KT 9SM FEW031 OVC110 06/02 A2953 RMK SLP002
18:41
V
6 °C 9 mi 10.000 ft 250° 250° 27 - 36 kt METAR CYHU 302341Z AUTO 25027G36KT 9SM SCT023 SCT038 OVC100 06/02 A2951 RMK SLP994
18:30
M
6 °C 9 mi 2.300 ft 250° 250° 29 - 44 kt METAR CYHU 302330Z AUTO 25029G44KT 9SM BKN023 BKN038 OVC060 06/03 A2950 RMK PRESRR SLP992
18:07
M
8 °C 9 mi 2.300 ft 230° 230° 29 - 43 kt METAR CYHU 302307Z AUTO 23029G43KT 9SM -RA BKN023 BKN029 BKN048 OVC071 08/05 A2948 RMK PRESRR SLP984
18:01
M
8 °C 9 mi 2.300 ft 230° 230° 29 - 40 kt METAR CYHU 302301Z AUTO 23029G40KT 9SM BKN023 BKN029 BKN048 OVC066 08/05 A2946 RMK SLP979
17:50
V
8 °C 9 mi 6.600 ft 220° 220° 21 - 33 kt METAR CYHU 302250Z AUTO 22021G33KT 9SM FEW025 SCT048 OVC066 08/05 A2946 RMK SLP977
17:00
V
8 °C 8 mi 4.600 ft 200° 200° 17 - 29 kt METAR CYHU 302200Z AUTO 20017G29KT 8SM -RA FEW028 SCT036 OVC046 08/07 A2944 RMK PCPN 1.2MM PAST HR SLP970
16:21
V
8 °C 9 mi 4.800 ft 170° 170° 16 - 23 kt METAR CYHU 302121Z AUTO 17016G23KT 9SM -RA SCT013 OVC048 08/07 A2940 RMK SLP959
16:00
M
7 °C 9 mi 1.300 ft 170° 170° 14 - 24 kt METAR CYHU 302100Z AUTO 17014G24KT 9SM -RA BKN013 OVC055 07/06 A2941 RMK PCPN 2.5MM PAST HR SLP961
15:31
M
6 °C 6 mi 1.500 ft 160° 160° 11 - 16 kt METAR CYHU 302031Z AUTO 16011G16KT 6SM RA BR BKN015 OVC020 06/05 A2942 RMK PCPN 1.8MM PAST HR SLP966
15:01
M
6 °C 5 mi 2.000 ft 190° 190° 9 kt METAR CYHU 302001Z AUTO 19009KT 5SM RA BR FEW015 OVC020 06/05 A2945 RMK SLP974
15:00
M
6 °C 6 mi 2.000 ft 200° 200° 9 kt METAR CYHU 302000Z AUTO 20009KT 6SM RA BR FEW015 OVC020 06/05 A2945 RMK PCPN 4.5MM PAST HR SLP975
14:54
M
6 °C 6 mi 2.000 ft 180° 180° 7 kt METAR CYHU 301954Z AUTO 18007KT 6SM RA BR OVC020 06/05 A2945 RMK PCPN 4.0MM PAST HR SLP974
14:13
M
6 °C 5 mi 2.200 ft 160° 160° 14 - 23 kt METAR CYHU 301913Z AUTO 16014G23KT 5SM -RA BR BKN022 BKN046 OVC066 06/05 A2946 RMK PRESRR PCPN 0.8MM PAST HR SLP977
14:00
V
6 °C 5 mi 6.600 ft 150° 150° 15 - 32 kt METAR CYHU 301900Z AUTO 15015G32KT 5SM -RA BR FEW022 OVC066 06/05 A2945 RMK PCPN 2.5MM PAST HR SLP975
13:41
V
6 °C 5 mi 7.100 ft 150° 150° 21 - 39 kt METAR CYHU 301841Z AUTO 15021G39KT 5SM -RA BR OVC071 06/04 A2944 RMK PRESFR PCPN 1.8MM PAST HR SLP972
13:25
V
6 °C 6 mi 7.100 ft 140° 140° 20 - 33 kt METAR CYHU 301825Z AUTO 14020G33KT 6SM -RA BR OVC071 06/04 A2946 RMK PRESFR PCPN 1.2MM PAST HR SLP979
13:15
V
5 °C 5 mi 7.100 ft 140° 140° 21 - 31 kt METAR CYHU 301815Z AUTO 14021G31KT 5SM -RA BR OVC071 05/04 A2948 RMK PRESFR PCPN 1.0MM PAST HR SLP985
13:01
V
5 °C 6 mi 6.600 ft 150° 150° 18 - 25 kt METAR CYHU 301801Z AUTO 15018G25KT 6SM -RA BR FEW027 OVC066 05/03 A2952 RMK PRESFR ICE MISG SLP999
13:00
V
5 °C 5 mi 6.600 ft 150° 150° 16 - 23 kt METAR CYHU 301800Z AUTO 15016G23KT 5SM -RA BR FEW027 OVC066 05/03 A2952 RMK PCPN 3.8MM PAST HR SLP000
12:21
V
4 °C 6 mi 5.500 ft 140° 140° 12 - 18 kt METAR CYHU 301721Z AUTO 14012G18KT 6SM -RA BR SCT025 OVC055 04/03 A2957 RMK PRESFR PCPN 2.0MM PAST HR SLP017
12:12
V
4 °C 5 mi 4.900 ft 140° 140° 12 - 21 kt METAR CYHU 301712Z AUTO 14012G21KT 5SM RA BR SCT027 OVC049 04/02 A2959 RMK PRESFR PCPN 1.5MM PAST HR SLP023
12:00
V
4 °C 9 mi 4.900 ft 130° 130° 14 kt METAR CYHU 301700Z AUTO 13014KT 9SM -RA SCT027 OVC049 04/02 A2961 RMK PRESFR PCPN 2.8MM PAST HR SLP030
11:37
V
4 °C 6 mi 4.200 ft 140° 140° 11 - 17 kt METAR CYHU 301637Z AUTO 14011G17KT 6SM RA BR SCT029 BKN042 OVC049 04/02 A2965 RMK PRESFR PCPN 2.5MM PAST HR SLP044
11:28
V
4 °C 5 mi 4.000 ft 130° 130° 8 - 16 kt METAR CYHU 301628Z AUTO 13008G16KT 5SM RA BR FEW029 BKN040 OVC047 04/02 A2966 RMK PRESFR PCPN 1.8MM PAST HR SLP048
11:00
V
4 °C 8 mi 4.300 ft 140° 140° 12 - 20 kt METAR CYHU 301600Z AUTO 14012G20KT 8SM -RA SCT032 OVC043 04/01 A2971 RMK PRESFR PCPN 0.8MM PAST HR SLP065
10:03
M
4 °C 9 mi 2.800 ft 150° 150° 13 - 20 kt METAR CYHU 301503Z AUTO 15013G20KT 9SM -RA OVC028 04/M00 A2981 RMK SLP097
10:00
M
4 °C 9 mi 2.800 ft 150° 150° 11 - 21 kt METAR CYHU 301500Z AUTO 15011G21KT 9SM OVC028 04/M01 A2981 RMK SLP096
09:00
M
4 °C 9 mi 2.800 ft 140° 140° 13 - 18 kt METAR CYHU 301400Z AUTO 14013G18KT 9SM BKN028 04/M01 A2986 RMK SLP113
08:00
V
3 °C 9 mi - 160° 160° 13 - 22 kt METAR CYHU 301300Z AUTO 16013G22KT 9SM FEW140 03/M02 A2990 RMK SLP128
07:00
V
2 °C 9 mi 16.000 ft 150° 150° 12 - 17 kt METAR CYHU 301200Z AUTO 15012G17KT 9SM BKN160 02/M03 A2994 RMK SLP142
06:00
V
1 °C 9 mi 17.000 ft 130° 130° 8 kt METAR CYHU 301100Z AUTO 13008KT 9SM BKN170 BKN190 01/M03 A2996 RMK SLP149
05:00
V
1 °C 9 mi 20.000 ft 120° 120° 8 kt METAR CYHU 301000Z AUTO 12008KT 9SM SCT170 OVC200 01/M04 A2998 RMK SLP155
04:00
V
0 °C 9 mi - 130° 130° 8 - 15 kt METAR CYHU 300900Z AUTO 13008G15KT 9SM CLR 00/M04 A3003 RMK SLP173
03:00
V
0 °C 9 mi 22.000 ft 110° 110° 9 - 16 kt METAR CYHU 300800Z AUTO 11009G16KT 9SM OVC220 00/M04 A3007 RMK SLP188
02:00
V
0 °C 9 mi 23.000 ft 100° 100° 8 kt METAR CYHU 300700Z AUTO 10008KT 9SM FEW030 OVC230 M00/M04 A3013 RMK SLP206
01:00
V
0 °C 9 mi 3.200 ft 100° 100° 8 kt METAR CYHU 300600Z AUTO 10008KT 9SM OVC032 00/M04 A3015 RMK SLP213
00:00
V
0 °C 9 mi 3.400 ft 100° 100° 8 kt METAR CYHU 300500Z AUTO 10008KT 9SM OVC034 00/M04 A3018 RMK SLP222

2022年11月29日

时间 代码 天气 温度 能见度 天花板 METAR/SPECI
23:00
V
1 °C 9 mi 3.400 ft 120° 120° 7 kt METAR CYHU 300400Z AUTO 12007KT 9SM OVC034 01/M04 A3022 RMK SLP237
22:00
V
1 °C 9 mi 3.600 ft 140° 140° 7 kt METAR CYHU 300300Z AUTO 14007KT 9SM OVC036 01/M04 A3023 RMK SLP240
21:00
V
1 °C 9 mi 3.800 ft 120° 120° 7 kt METAR CYHU 300200Z AUTO 12007KT 9SM OVC038 01/M04 A3023 RMK SLP241
20:00
V
0 °C 9 mi 3.800 ft 120° 120° 7 kt METAR CYHU 300100Z AUTO 12007KT 9SM OVC038 00/M04 A3026 RMK SLP250
19:00
V
0 °C 9 mi 3.800 ft 110° 110° 7 kt METAR CYHU 300000Z AUTO 11007KT 9SM OVC038 00/M04 A3026 RMK SLP249
18:00
V
0 °C 9 mi 4.000 ft 100° 100° 8 kt METAR CYHU 292300Z AUTO 10008KT 9SM OVC040 00/M04 A3027 RMK SLP253
17:00
V
0 °C 9 mi 4.000 ft 090° 090° 6 kt METAR CYHU 292200Z AUTO 09006KT 9SM OVC040 00/M04 A3028 RMK SLP258
16:00
V
0 °C 9 mi 4.000 ft 090° 090° 7 kt METAR CYHU 292100Z AUTO 09007KT 9SM OVC040 00/M05 A3028 RMK SLP259
15:00
V
0 °C 9 mi 3.400 ft 080° 080° 5 kt METAR CYHU 292000Z AUTO 08005KT 9SM OVC034 M00/M05 A3027 RMK SLP254
14:00
V
0 °C 9 mi 3.300 ft 090° 090° 6 kt METAR CYHU 291900Z AUTO 09006KT 9SM OVC033 M00/M05 A3027 RMK SLP253
13:00
V
0 °C 9 mi 3.500 ft 080° 080° 7 kt METAR CYHU 291800Z AUTO 08007KT 9SM OVC035 M00/M05 A3026 RMK SLP251
12:00
V
-1 °C 9 mi 3.500 ft 090° 090° 4 kt METAR CYHU 291700Z AUTO 09004KT 9SM OVC035 M01/M06 A3028 RMK SLP259
11:00
V
-1 °C 9 mi 3.300 ft 100° 100° 5 kt METAR CYHU 291600Z AUTO 10005KT 070V140 9SM OVC033 M01/M06 A3029 RMK SLP262
10:00
V
-2 °C 9 mi 3.100 ft 100° 100° 6 kt METAR CYHU 291500Z AUTO 10006KT 060V120 9SM OVC031 M02/M06 A3031 RMK SLP268
09:00
V
-2 °C 9 mi 3.100 ft 090° 090° 5 kt METAR CYHU 291400Z AUTO 09005KT 9SM OVC031 M02/M06 A3028 RMK SLP258
08:00
M
-2 °C 9 mi 2.900 ft 050° 050° 4 kt METAR CYHU 291300Z AUTO 05004KT 9SM OVC029 M02/M06 A3028 RMK SLP257
07:00
M
-3 °C 9 mi 2.900 ft 040° 040° 5 kt METAR CYHU 291200Z AUTO 04005KT 9SM OVC029 M03/M07 A3027 RMK SLP253
06:00
M
-3 °C 9 mi 2.900 ft 030° 030° 6 kt METAR CYHU 291100Z AUTO 03006KT 9SM OVC029 M03/M07 A3023 RMK SLP242
05:00
V
-3 °C 9 mi 3.100 ft 030° 030° 5 kt METAR CYHU 291000Z AUTO 03005KT 9SM OVC031 M03/M07 A3022 RMK SLP238

我们和第三方通过cookies跟踪您在我们网站上的互联网行为。如果你继续,我们认为你同意我们的饼干政策